KLM132 NZWN-YSSY
Flight info
| Callsign | KLM132 |
|---|---|
| Flight time | N/A |
| Altitude | 35000 |
| Route | RUSIL Y127 OPABI Q277 DAVEE |
| Aircraft | A339/H-SADE1E2E3GHIJ3J5M1P2/LB2D1 |
Departure
| Time | N/A |
|---|---|
| Airport | Wellington International Airport (NZWN) |
Arrival
| Time | 2026-04-23 07:05 |
|---|---|
| Airport | Sydney Kingsford Smith International Airport (YSSY) |
| Time | Latitude | Longitude | Altitude | Speed | Heading |
|---|---|---|---|---|---|
| 2026-04-23 06:53 | -34.11610 | 151.22232 | 4079 ft | 246 kts | 274° |
| 2026-04-23 06:53 | -34.11035 | 151.20253 | 4853 ft | 258 kts | 302° |
| 2026-04-23 06:54 | -34.09765 | 151.18741 | 5562 ft | 263 kts | 325° |
| 2026-04-23 06:54 | -34.08092 | 151.17921 | 5282 ft | 262 kts | 355° |
| 2026-04-23 06:54 | -34.06392 | 151.18058 | 5227 ft | 233 kts | 1° |
| 2026-04-23 06:54 | -34.04879 | 151.18314 | 5274 ft | 208 kts | 357° |
| 2026-04-23 06:55 | -34.03595 | 151.17605 | 5136 ft | 224 kts | 326° |
| 2026-04-23 06:55 | -34.02093 | 151.16508 | 4748 ft | 259 kts | 333° |
| 2026-04-23 06:55 | -34.00390 | 151.15693 | 5072 ft | 268 kts | 335° |
| 2026-04-23 06:55 | -33.98636 | 151.14928 | 5080 ft | 261 kts | 332° |
| 2026-04-23 06:56 | -33.97050 | 151.14152 | 5145 ft | 230 kts | 335° |
| 2026-04-23 06:56 | -33.95680 | 151.13423 | 5273 ft | 202 kts | 332° |
| 2026-04-23 06:56 | -33.94450 | 151.12589 | 4829 ft | 212 kts | 331° |
| 2026-04-23 06:56 | -33.93126 | 151.11732 | 4419 ft | 217 kts | 333° |
| 2026-04-23 06:57 | -33.91814 | 151.10892 | 4299 ft | 209 kts | 333° |
| 2026-04-23 06:57 | -33.90539 | 151.10072 | 4316 ft | 221 kts | 333° |
| 2026-04-23 06:57 | -33.89163 | 151.09194 | 4294 ft | 218 kts | 333° |
| 2026-04-23 06:57 | -33.87770 | 151.08309 | 4298 ft | 234 kts | 333° |
| 2026-04-23 06:58 | -33.86327 | 151.07391 | 4296 ft | 233 kts | 332° |
| 2026-04-23 06:58 | -33.84887 | 151.06472 | 4209 ft | 238 kts | 333° |
| 2026-04-23 06:58 | -33.83435 | 151.05533 | 3928 ft | 235 kts | 332° |
| 2026-04-23 06:58 | -33.82015 | 151.04619 | 3605 ft | 232 kts | 332° |
| 2026-04-23 06:59 | -33.80604 | 151.03716 | 3229 ft | 232 kts | 333° |
| 2026-04-23 06:59 | -33.79203 | 151.02808 | 3085 ft | 221 kts | 333° |
| 2026-04-23 06:59 | -33.77870 | 151.01873 | 3399 ft | 232 kts | 328° |
| 2026-04-23 06:59 | -33.76479 | 151.00933 | 3584 ft | 224 kts | 341° |
| 2026-04-23 07:00 | -33.74971 | 151.00758 | 3221 ft | 217 kts | 14° |
| 2026-04-23 07:00 | -33.73666 | 151.01545 | 2943 ft | 212 kts | 48° |
| 2026-04-23 07:00 | -33.72941 | 151.03057 | 2911 ft | 208 kts | 79° |
| 2026-04-23 07:00 | -33.72975 | 151.04744 | 3013 ft | 201 kts | 102° |
| 2026-04-23 07:01 | -33.73470 | 151.06310 | 3384 ft | 203 kts | 127° |
| 2026-04-23 07:01 | -33.74522 | 151.07422 | 3469 ft | 203 kts | 144° |
| 2026-04-23 07:01 | -33.75782 | 151.08321 | 2857 ft | 211 kts | 148° |
| 2026-04-23 07:01 | -33.77047 | 151.09169 | 2436 ft | 206 kts | 147° |
| 2026-04-23 07:02 | -33.78112 | 151.10221 | 2442 ft | 184 kts | 131° |
| 2026-04-23 07:02 | -33.78897 | 151.11282 | 2568 ft | 166 kts | 132° |
| 2026-04-23 07:02 | -33.79686 | 151.12352 | 2764 ft | 175 kts | 133° |
| 2026-04-23 07:02 | -33.80506 | 151.13436 | 3221 ft | 172 kts | 133° |
| 2026-04-23 07:03 | -33.81391 | 151.14579 | 2430 ft | 197 kts | 134° |
| 2026-04-23 07:03 | -33.82353 | 151.15679 | 2317 ft | 183 kts | 146° |
| 2026-04-23 07:03 | -33.83506 | 151.16059 | 2346 ft | 168 kts | 180° |
| 2026-04-23 07:03 | -33.84758 | 151.15714 | 2497 ft | 203 kts | 188° |
| 2026-04-23 07:04 | -33.86182 | 151.15261 | 2492 ft | 223 kts | 186° |
| 2026-04-23 07:04 | -33.87744 | 151.15315 | 2264 ft | 221 kts | 168° |
| 2026-04-23 07:04 | -33.89193 | 151.15820 | 1589 ft | 216 kts | 158° |
| 2026-04-23 07:04 | -33.90566 | 151.16458 | 830 ft | 205 kts | 169° |
| 2026-04-23 07:05 | -33.91852 | 151.16896 | 318 ft | 177 kts | 175° |
| 2026-04-23 07:05 | -33.92965 | 151.17177 | 64 ft | 151 kts | 173° |
| 2026-04-23 07:05 | -33.93758 | 151.17365 | 23 ft | 51 kts | 166° |
| 2026-04-23 07:05 | -33.93940 | 151.17485 | 25 ft | 10 kts | 107° |